Time;durP1;ratioP1;P1;durP2;ratioP2;P2;SDS_P1;SDS_P2;PMS_P1;PMS_P2;Temp;Humidity;BMP_temperature;BMP_pressure;BME280_temperature;BME280_humidity;BME280_pressure;Samples;Min_cycle;Max_cycle;Signal;HPM_P1;HPM_P2
2022/08/25 00:01:29;;;;;;;;;;;;;;;-155.54;100.00;57697.75;5001524;28;20181;-68
2022/08/25 00:03:54;;;;;;;;;;;;;;;-155.54;100.00;57697.75;4987391;28;19921;-68
2022/08/25 00:06:19;;;;;;;;;;;;;;;-155.54;100.00;57697.75;5002992;28;19925;-68
2022/08/25 00:08:45;;;;;;;;;;;;;;;-155.54;100.00;57697.75;5003225;28;19920;-68
2022/08/25 00:11:12;;;;;;;;;;;;;;;-155.54;100.00;57697.75;5005384;28;19972;-68
2022/08/25 00:13:38;;;;;;;;;;;;;;;-155.54;100.00;57697.75;5001736;28;19918;-68
2022/08/25 00:16:03;;;;;;;;;;;;;;;-155.54;100.00;57697.75;4999385;28;19922;-68
2022/08/25 00:18:29;;;;;;;;;;;;;;;-155.54;100.00;57697.75;5004758;28;20288;-67
2022/08/25 00:20:54;;;;;;;;;;;;;;;-155.54;100.00;57697.75;5003491;28;19992;-68
2022/08/25 00:23:19;;;;;;;;;;;;;;;-155.54;100.00;57697.75;5003659;28;20409;-67
2022/08/25 00:25:45;;;;;;;;;;;;;;;-155.54;100.00;57697.75;5003289;28;20003;-68
2022/08/25 00:28:10;;;;;;;;;;;;;;;-155.54;100.00;57697.75;5004328;28;19918;-68
2022/08/25 00:30:35;;;;;;;;;;;;;;;-155.54;100.00;57697.75;5000226;28;19931;-68
2022/08/25 00:33:01;;;;;;;;;;;;;;;-155.54;100.00;57697.75;5000887;28;20470;-68
2022/08/25 00:35:26;;;;;;;;;;;;;;;-155.54;100.00;57697.75;4985768;28;19936;-67
2022/08/25 00:37:51;;;;;;;;;;;;;;;-155.54;100.00;57697.75;4997750;28;19951;-68
2022/08/25 00:40:17;;;;;;;;;;;;;;;-155.54;100.00;57697.75;5000173;28;20012;-67
2022/08/25 00:42:42;;;;;;;;;;;;;;;-155.54;100.00;57697.75;5002353;28;20440;-68
2022/08/25 00:45:08;;;;;;;;;;;;;;;-155.54;100.00;57697.75;4999945;28;19933;-67
2022/08/25 00:47:33;;;;;;;;;;;;;;;-155.54;100.00;57697.75;4979497;28;19921;-67
2022/08/25 00:49:59;;;;;;;;;;;;;;;-155.54;100.00;57697.75;5003163;28;19922;-67
2022/08/25 00:52:32;;;;;;;;;;;;;;;-155.54;100.00;57697.75;4987064;28;19918;-67
2022/08/25 00:55:00;;;;;;;;;;;;;;;-155.54;100.00;57697.75;4979267;28;19918;-67
2022/08/25 00:57:29;;;;;;;;;;;;;;;-155.54;100.00;57697.75;4989791;28;19968;-67
2022/08/25 00:59:54;;;;;;;;;;;;;;;-155.54;100.00;57697.75;4997802;28;19952;-68
2022/08/25 01:02:20;;;;;;;;;;;;;;;-155.54;100.00;57697.75;5000372;28;20383;-68
2022/08/25 01:04:45;;;;;;;;;;;;;;;-155.54;100.00;57697.75;5003354;28;19953;-67
2022/08/25 01:07:11;;;;;;;;;;;;;;;-155.54;100.00;57697.75;5002560;28;20170;-67
2022/08/25 01:09:36;;;;;;;;;;;;;;;-155.54;100.00;57697.75;5002354;28;19921;-67
2022/08/25 01:12:02;;;;;;;;;;;;;;;-155.54;100.00;57697.75;5002916;28;19964;-67
2022/08/25 01:14:27;;;;;;;;;;;;;;;-155.54;100.00;57697.75;5002076;28;19925;-67
2022/08/25 01:16:52;;;;;;;;;;;;;;;-155.54;100.00;57697.75;4982682;28;20020;-67
2022/08/25 01:19:18;;;;;;;;;;;;;;;-155.54;100.00;57697.75;5004113;28;20166;-67
2022/08/25 01:21:47;;;;;;;;;;;;;;;-155.54;100.00;57697.75;5001788;28;19976;-62
2022/08/25 01:24:18;;;;;;;;;;;;;;;-155.54;100.00;57697.75;5002633;28;19922;-61
2022/08/25 01:26:43;;;;;;;;;;;;;;;-155.54;100.00;57697.75;4983302;28;19921;-61
2022/08/25 01:29:20;;;;;;;;;;;;;;;-155.54;100.00;57697.75;5003667;28;19925;-62
2022/08/25 01:31:49;;;;;;;;;;;;;;;-155.54;100.00;57697.75;4987055;28;19921;-61
2022/08/25 01:34:15;;;;;;;;;;;;;;;-155.54;100.00;57697.75;5003130;28;20315;-61
2022/08/25 01:36:40;;;;;;;;;;;;;;;-155.54;100.00;57697.75;5001557;28;19932;-62
2022/08/25 01:39:06;;;;;;;;;;;;;;;-155.54;100.00;57697.75;5002780;28;19913;-61
2022/08/25 01:41:35;;;;;;;;;;;;;;;-155.54;100.00;57697.75;4999997;28;20695;-58
2022/08/25 01:44:01;;;;;;;;;;;;;;;-155.54;100.00;57697.75;5000605;28;20264;-62
2022/08/25 01:46:26;;;;;;;;;;;;;;;-155.54;100.00;57697.75;4999307;28;20529;-62
2022/08/25 01:48:52;;;;;;;;;;;;;;;-155.54;100.00;57697.75;5001183;28;20319;-61
2022/08/25 01:51:18;;;;;;;;;;;;;;;-155.54;100.00;57697.75;5001075;28;20512;-66
2022/08/25 01:53:43;;;;;;;;;;;;;;;-155.54;100.00;57697.75;5001509;28;20005;-65
2022/08/25 01:56:10;;;;;;;;;;;;;;;-155.54;100.00;57697.75;5002380;28;20012;-65
2022/08/25 01:58:36;;;;;;;;;;;;;;;-155.54;100.00;57697.75;5001496;28;19928;-65
2022/08/25 02:01:02;;;;;;;;;;;;;;;-155.54;100.00;57697.75;5000539;28;20288;-65
2022/08/25 02:03:28;;;;;;;;;;;;;;;-155.54;100.00;57697.75;4983910;28;20018;-66
2022/08/25 02:05:53;;;;;;;;;;;;;;;-155.54;100.00;57697.75;5001156;28;19961;-66
2022/08/25 02:08:18;;;;;;;;;;;;;;;-155.54;100.00;57697.75;5002777;28;20258;-66
2022/08/25 02:10:45;;;;;;;;;;;;;;;-155.54;100.00;57697.75;5001580;28;19925;-66
2022/08/25 02:13:10;;;;;;;;;;;;;;;-155.54;100.00;57697.75;5000984;28;19925;-66
2022/08/25 02:15:39;;;;;;;;;;;;;;;-155.54;100.00;57697.75;5002108;28;19920;-67
2022/08/25 02:18:04;;;;;;;;;;;;;;;-155.54;100.00;57697.75;4980631;28;20370;-67
2022/08/25 02:20:29;;;;;;;;;;;;;;;-155.54;100.00;57697.75;5000568;28;20016;-67
2022/08/25 02:22:55;;;;;;;;;;;;;;;-155.54;100.00;57697.75;4999544;28;20740;-67
2022/08/25 02:25:20;;;;;;;;;;;;;;;-155.54;100.00;57697.75;5002274;28;19930;-67
2022/08/25 02:27:45;;;;;;;;;;;;;;;-155.54;100.00;57697.75;4983430;28;19928;-67
2022/08/25 02:30:14;;;;;;;;;;;;;;;-155.54;100.00;57697.75;4999799;28;19944;-67
2022/08/25 02:32:39;;;;;;;;;;;;;;;-155.54;100.00;57697.75;4997599;28;19914;-67
2022/08/25 02:35:05;;;;;;;;;;;;;;;-155.54;100.00;57697.75;4999660;28;19920;-67
2022/08/25 02:37:30;;;;;;;;;;;;;;;-155.54;100.00;57697.75;5001738;28;19918;-67
2022/08/25 02:39:55;;;;;;;;;;;;;;;-155.54;100.00;57697.75;5002323;28;19917;-66
2022/08/25 02:42:21;;;;;;;;;;;;;;;-155.54;100.00;57697.75;5001134;28;20263;-66
2022/08/25 02:44:46;;;;;;;;;;;;;;;-155.54;100.00;57697.75;5001068;28;20244;-66
2022/08/25 02:47:12;;;;;;;;;;;;;;;-155.54;100.00;57697.75;4998523;28;20414;-66
2022/08/25 02:49:37;;;;;;;;;;;;;;;-155.54;100.00;57697.75;4999176;28;19988;-66
2022/08/25 02:52:02;;;;;;;;;;;;;;;-155.54;100.00;57697.75;5002011;28;19929;-66
2022/08/25 02:54:28;;;;;;;;;;;;;;;-155.54;100.00;57697.75;4977358;28;19969;-61
2022/08/25 02:56:53;;;;;;;;;;;;;;;-155.54;100.00;57697.75;4997977;28;19987;-66
2022/08/25 02:59:18;;;;;;;;;;;;;;;-155.54;100.00;57697.75;5000618;28;19921;-66
2022/08/25 03:01:43;;;;;;;;;;;;;;;-155.54;100.00;57697.75;5000079;28;19926;-66
2022/08/25 03:04:09;;;;;;;;;;;;;;;-155.54;100.00;57697.75;5001455;28;20383;-67
2022/08/25 03:06:34;;;;;;;;;;;;;;;-155.54;100.00;57697.75;4995626;28;19925;-67
2022/08/25 03:09:00;;;;;;;;;;;;;;;-155.54;100.00;57697.75;5001625;28;20028;-66
2022/08/25 03:11:25;;;;;;;;;;;;;;;-155.54;100.00;57697.75;5000828;28;19983;-66
2022/08/25 03:13:50;;;;;;;;;;;;;;;-155.54;100.00;57697.75;4999738;28;19929;-67
2022/08/25 03:16:16;;;;;;;;;;;;;;;-155.54;100.00;57697.75;5001134;28;20131;-61
2022/08/25 03:18:41;;;;;;;;;;;;;;;-155.54;100.00;57697.75;5001415;28;20417;-66
2022/08/25 03:21:06;;;;;;;;;;;;;;;-155.54;100.00;57697.75;4997158;28;20298;-66
2022/08/25 03:23:32;;;;;;;;;;;;;;;-155.54;100.00;57697.75;4999819;28;20587;-67
2022/08/25 03:28:41;;;;;;;;;;;;;;;-155.54;100.00;57697.75;5001094;28;20452;-67
2022/08/25 03:31:06;;;;;;;;;;;;;;;-155.54;100.00;57697.75;4998796;28;19918;-67
2022/08/25 03:33:31;;;;;;;;;;;;;;;-155.54;100.00;57697.75;4996393;28;19926;-67
2022/08/25 03:35:57;;;;;;;;;;;;;;;-155.54;100.00;57697.75;4997803;28;19922;-67
2022/08/25 03:38:22;;;;;;;;;;;;;;;-155.54;100.00;57697.75;4981642;28;19944;-67
2022/08/25 03:40:48;;;;;;;;;;;;;;;-155.54;100.00;57697.75;4994350;28;20028;-67
2022/08/25 03:43:13;;;;;;;;;;;;;;;-155.54;100.00;57697.75;5000198;28;19948;-67
2022/08/25 03:45:39;;;;;;;;;;;;;;;-155.54;100.00;57697.75;5001117;28;20148;-67
2022/08/25 03:48:04;;;;;;;;;;;;;;;-155.54;100.00;57697.75;4989501;28;20173;-67
2022/08/25 03:50:29;;;;;;;;;;;;;;;-155.54;100.00;57697.75;5000995;28;19956;-67
2022/08/25 03:52:55;;;;;;;;;;;;;;;-155.54;100.00;57697.75;4999663;28;20009;-67
2022/08/25 03:55:20;;;;;;;;;;;;;;;-155.54;100.00;57697.75;5000839;28;19924;-67
2022/08/25 03:57:46;;;;;;;;;;;;;;;-155.54;100.00;57697.75;4995778;28;19921;-68
2022/08/25 04:00:12;;;;;;;;;;;;;;;-155.54;100.00;57697.75;5001458;28;20366;-67
2022/08/25 04:02:38;;;;;;;;;;;;;;;-155.54;100.00;57697.75;4997755;28;19918;-67
2022/08/25 04:05:03;;;;;;;;;;;;;;;-155.54;100.00;57697.75;5001055;28;19975;-67
2022/08/25 04:07:28;;;;;;;;;;;;;;;-155.54;100.00;57697.75;4998872;28;19914;-68
2022/08/25 04:09:55;;;;;;;;;;;;;;;-155.54;100.00;57697.75;5000107;28;20019;-67
2022/08/25 04:12:20;;;;;;;;;;;;;;;-155.54;100.00;57697.75;4998082;28;20138;-68
2022/08/25 04:14:45;;;;;;;;;;;;;;;-155.54;100.00;57697.75;5001318;28;19929;-67
2022/08/25 04:17:10;;;;;;;;;;;;;;;-155.54;100.00;57697.75;4999992;28;19929;-67
2022/08/25 04:19:37;;;;;;;;;;;;;;;-155.54;100.00;57697.75;5001357;28;19929;-67
2022/08/25 04:22:02;;;;;;;;;;;;;;;-155.54;100.00;57697.75;4997120;28;19925;-67
2022/08/25 04:24:27;;;;;;;;;;;;;;;-155.54;100.00;57697.75;5001004;28;19921;-67
2022/08/25 04:26:53;;;;;;;;;;;;;;;-155.54;100.00;57697.75;4995994;28;20578;-67
2022/08/25 04:29:19;;;;;;;;;;;;;;;-155.54;100.00;57697.75;4983038;28;19968;-67
2022/08/25 04:31:45;;;;;;;;;;;;;;;-155.54;100.00;57697.75;4998562;28;19917;-67
2022/08/25 04:34:10;;;;;;;;;;;;;;;-155.54;100.00;57697.75;5000615;28;20636;-68
2022/08/25 04:36:36;;;;;;;;;;;;;;;-155.54;100.00;57697.75;5000280;28;19960;-67
2022/08/25 04:39:01;;;;;;;;;;;;;;;-155.54;100.00;57697.75;5000443;28;19978;-67
2022/08/25 04:41:27;;;;;;;;;;;;;;;-155.54;100.00;57697.75;4997399;28;19929;-68
2022/08/25 04:43:55;;;;;;;;;;;;;;;-155.54;100.00;57697.75;5002485;28;20174;-68
2022/08/25 04:46:21;;;;;;;;;;;;;;;-155.54;100.00;57697.75;4996796;28;20016;-67
2022/08/25 04:48:47;;;;;;;;;;;;;;;-155.54;100.00;57697.75;5003927;28;19952;-67
2022/08/25 04:51:13;;;;;;;;;;;;;;;-155.54;100.00;57697.75;4982940;28;19937;-67
2022/08/25 04:53:38;;;;;;;;;;;;;;;-155.54;100.00;57697.75;4997602;28;19932;-67
2022/08/25 04:56:04;;;;;;;;;;;;;;;-155.54;100.00;57697.75;4981164;28;19917;-68
2022/08/25 04:58:29;;;;;;;;;;;;;;;-155.54;100.00;57697.75;4997304;28;20416;-67
2022/08/25 05:01:00;;;;;;;;;;;;;;;-155.54;100.00;57697.75;4999298;28;20016;-67
2022/08/25 05:03:25;;;;;;;;;;;;;;;-155.54;100.00;57697.75;5002838;28;19918;-67
2022/08/25 05:05:50;;;;;;;;;;;;;;;-155.54;100.00;57697.75;5004080;28;19921;-67
2022/08/25 05:08:16;;;;;;;;;;;;;;;-155.54;100.00;57697.75;4986262;28;20358;-67
2022/08/25 05:10:42;;;;;;;;;;;;;;;-155.54;100.00;57697.75;5000113;28;19973;-68
2022/08/25 05:13:07;;;;;;;;;;;;;;;-155.54;100.00;57697.75;5003744;28;19959;-67
2022/08/25 05:15:50;;;;;;;;;;;;;;;-155.54;100.00;57697.75;4997716;28;19922;-68
2022/08/25 05:18:16;;;;;;;;;;;;;;;-155.54;100.00;57697.75;4994757;28;20052;-68
2022/08/25 05:20:41;;;;;;;;;;;;;;;-155.54;100.00;57697.75;4995967;28;19925;-67
2022/08/25 05:23:06;;;;;;;;;;;;;;;-155.54;100.00;57697.75;4978754;28;20056;-68
2022/08/25 05:25:32;;;;;;;;;;;;;;;-155.54;100.00;57697.75;4998710;28;19953;-67
2022/08/25 05:27:57;;;;;;;;;;;;;;;-155.54;100.00;57697.75;5003248;28;20395;-68
2022/08/25 05:30:22;;;;;;;;;;;;;;;-155.54;100.00;57697.75;4996053;28;19977;-68
2022/08/25 05:32:48;;;;;;;;;;;;;;;-155.54;100.00;57697.75;4999837;28;20394;-68
2022/08/25 05:35:14;;;;;;;;;;;;;;;-155.54;100.00;57697.75;4997242;28;20004;-68
2022/08/25 05:37:39;;;;;;;;;;;;;;;-155.54;100.00;57697.75;5001002;28;20104;-68
2022/08/25 05:40:05;;;;;;;;;;;;;;;-155.54;100.00;57697.75;4997547;28;20187;-67
2022/08/25 05:42:31;;;;;;;;;;;;;;;-155.54;100.00;57697.75;5002635;28;19921;-67
2022/08/25 05:44:56;;;;;;;;;;;;;;;-155.54;100.00;57697.75;4996359;28;20231;-67
2022/08/25 05:47:21;;;;;;;;;;;;;;;-155.54;100.00;57697.75;4998438;28;19979;-67
2022/08/25 05:49:47;;;;;;;;;;;;;;;-155.54;100.00;57697.75;4999588;28;20297;-67
2022/08/25 05:52:12;;;;;;;;;;;;;;;-155.54;100.00;57697.75;5003701;28;19921;-67
2022/08/25 05:54:38;;;;;;;;;;;;;;;-155.54;100.00;57697.75;4998849;28;20414;-67
2022/08/25 05:57:04;;;;;;;;;;;;;;;-155.54;100.00;57697.75;5000749;28;19925;-67
2022/08/25 05:59:30;;;;;;;;;;;;;;;-155.54;100.00;57697.75;4997518;28;19940;-68
2022/08/25 06:04:39;;;;;;;;;;;;;;;-155.54;100.00;57697.75;4994617;28;20286;-67
2022/08/25 06:07:04;;;;;;;;;;;;;;;-155.54;100.00;57697.75;4995747;28;19922;-67
2022/08/25 06:09:29;;;;;;;;;;;;;;;-155.54;100.00;57697.75;5001306;28;20363;-67
2022/08/25 06:11:54;;;;;;;;;;;;;;;-155.54;100.00;57697.75;4993818;28;20330;-67
2022/08/25 06:14:20;;;;;;;;;;;;;;;-155.54;100.00;57697.75;4996339;28;20020;-68
2022/08/25 06:16:47;;;;;;;;;;;;;;;-155.54;100.00;57697.75;4999307;28;19976;-68
2022/08/25 06:19:12;;;;;;;;;;;;;;;-155.54;100.00;57697.75;5000746;28;19920;-68
2022/08/25 06:21:38;;;;;;;;;;;;;;;-155.54;100.00;57697.75;4999188;28;20359;-68
2022/08/25 06:24:03;;;;;;;;;;;;;;;-155.54;100.00;57697.75;4986981;28;20836;-67
2022/08/25 06:26:29;;;;;;;;;;;;;;;-155.54;100.00;57697.75;4993282;28;19921;-68
2022/08/25 06:28:54;;;;;;;;;;;;;;;-155.54;100.00;57697.75;4992083;28;20454;-67
2022/08/25 06:31:21;;;;;;;;;;;;;;;-155.54;100.00;57697.75;4993092;28;19929;-68
2022/08/25 06:33:46;;;;;;;;;;;;;;;-155.54;100.00;57697.75;5000046;28;20389;-68
2022/08/25 06:36:11;;;;;;;;;;;;;;;-155.54;100.00;57697.75;4998617;28;20131;-68
2022/08/25 06:38:37;;;;;;;;;;;;;;;-155.54;100.00;57697.75;5002517;28;20023;-68
2022/08/25 06:41:03;;;;;;;;;;;;;;;-155.54;100.00;57697.75;4996769;28;19922;-67
2022/08/25 06:43:28;;;;;;;;;;;;;;;-155.54;100.00;57697.75;4995039;28;19929;-67
2022/08/25 06:45:53;;;;;;;;;;;;;;;-155.54;100.00;57697.75;5001155;28;20130;-68
2022/08/25 06:48:18;;;;;;;;;;;;;;;-155.54;100.00;57697.75;4995491;28;20476;-68
2022/08/25 06:50:44;;;;;;;;;;;;;;;-155.54;100.00;57697.75;5000494;28;19960;-68
2022/08/25 06:53:09;;;;;;;;;;;;;;;-155.54;100.00;57697.75;4996715;28;19971;-68
2022/08/25 06:55:35;;;;;;;;;;;;;;;-155.54;100.00;57697.75;4995944;28;19921;-68
2022/08/25 06:58:02;;;;;;;;;;;;;;;-155.54;100.00;57697.75;4999072;28;21478;-68
2022/08/25 07:00:27;;;;;;;;;;;;;;;-155.54;100.00;57697.75;4999241;28;20018;-66
2022/08/25 07:02:52;;;;;;;;;;;;;;;-155.54;100.00;57697.75;4998811;28;19961;-68
2022/08/25 07:05:18;;;;;;;;;;;;;;;-155.54;100.00;57697.75;5000990;28;19955;-67
2022/08/25 07:07:45;;;;;;;;;;;;;;;-155.54;100.00;57697.75;4997623;28;19976;-68
2022/08/25 07:10:10;;;;;;;;;;;;;;;-155.54;100.00;57697.75;4999815;28;19922;-68
2022/08/25 07:12:35;;;;;;;;;;;;;;;-155.54;100.00;57697.75;4997626;28;19936;-68
2022/08/25 07:15:01;;;;;;;;;;;;;;;-155.54;100.00;57697.75;5000706;28;20430;-68
2022/08/25 07:17:26;;;;;;;;;;;;;;;-155.54;100.00;57697.75;4995572;28;19925;-68
2022/08/25 07:19:51;;;;;;;;;;;;;;;-155.54;100.00;57697.75;4995462;28;19926;-68
2022/08/25 07:22:17;;;;;;;;;;;;;;;-155.54;100.00;57697.75;4997798;28;20012;-68
2022/08/25 07:24:42;;;;;;;;;;;;;;;-155.54;100.00;57697.75;4999554;28;19964;-68
2022/08/25 07:27:07;;;;;;;;;;;;;;;-155.54;100.00;57697.75;5000419;28;19921;-67
2022/08/25 07:29:35;;;;;;;;;;;;;;;-155.54;100.00;57697.75;4995589;28;19929;-68
2022/08/25 07:32:01;;;;;;;;;;;;;;;-155.54;100.00;57697.75;4999221;28;19921;-68
2022/08/25 07:37:10;;;;;;;;;;;;;;;-155.54;100.00;57697.75;4996913;28;19987;-67
2022/08/25 07:39:35;;;;;;;;;;;;;;;-155.54;100.00;57697.75;4999807;28;19921;-68
2022/08/25 07:42:00;;;;;;;;;;;;;;;-155.54;100.00;57697.75;4998718;28;19928;-69
2022/08/25 07:44:26;;;;;;;;;;;;;;;-155.54;100.00;57697.75;4999317;28;20439;-68
2022/08/25 07:46:51;;;;;;;;;;;;;;;-155.54;100.00;57697.75;4994837;28;19930;-68
2022/08/25 07:49:17;;;;;;;;;;;;;;;-155.54;100.00;57697.75;4999204;28;19997;-68
2022/08/25 07:51:43;;;;;;;;;;;;;;;-155.54;100.00;57697.75;4978277;28;20441;-67
2022/08/25 07:54:08;;;;;;;;;;;;;;;-155.54;100.00;57697.75;4993771;28;19943;-68
2022/08/25 07:56:33;;;;;;;;;;;;;;;-155.54;100.00;57697.75;4999151;28;20167;-68
2022/08/25 07:58:58;;;;;;;;;;;;;;;-155.54;100.00;57697.75;4993289;28;20593;-68
2022/08/25 08:01:24;;;;;;;;;;;;;;;-155.54;100.00;57697.75;4998754;28;19925;-67
2022/08/25 08:03:49;;;;;;;;;;;;;;;-155.54;100.00;57697.75;4999013;28;19917;-68
2022/08/25 08:06:15;;;;;;;;;;;;;;;-155.54;100.00;57697.75;4999196;28;19933;-68
2022/08/25 08:08:44;;;;;;;;;;;;;;;-155.54;100.00;57697.75;4999585;28;20402;-68
2022/08/25 08:11:16;;;;;;;;;;;;;;;-155.54;100.00;57697.75;4998506;28;20290;-68
2022/08/25 08:13:41;;;;;;;;;;;;;;;-155.54;100.00;57697.75;4999213;28;20032;-68
2022/08/25 08:16:09;;;;;;;;;;;;;;;-155.54;100.00;57697.75;4998333;28;19949;-68
2022/08/25 08:18:35;;;;;;;;;;;;;;;-155.54;100.00;57697.75;4998518;28;20388;-68
2022/08/25 08:21:00;;;;;;;;;;;;;;;-155.54;100.00;57697.75;4999889;28;19948;-67
2022/08/25 08:23:26;;;;;;;;;;;;;;;-155.54;100.00;57697.75;4997687;28;20279;-68
2022/08/25 08:25:52;;;;;;;;;;;;;;;-155.54;100.00;57697.75;4997964;28;20298;-68
2022/08/25 08:28:17;;;;;;;;;;;;;;;-155.54;100.00;57697.75;5000260;28;19922;-68
2022/08/25 08:30:42;;;;;;;;;;;;;;;-155.54;100.00;57697.75;4997902;28;20185;-68
2022/08/25 08:33:08;;;;;;;;;;;;;;;-155.54;100.00;57697.75;4996088;28;19930;-67
2022/08/25 08:35:33;;;;;;;;;;;;;;;-155.54;100.00;57697.75;5000368;28;19975;-68
2022/08/25 08:37:59;;;;;;;;;;;;;;;-155.54;100.00;57697.75;4998827;28;19968;-68
2022/08/25 08:40:24;;;;;;;;;;;;;;;-155.54;100.00;57697.75;4999169;28;19973;-68
2022/08/25 08:42:51;;;;;;;;;;;;;;;-155.54;100.00;57697.75;5002362;28;19926;-68
2022/08/25 08:45:22;;;;;;;;;;;;;;;-155.54;100.00;57697.75;4997458;28;19925;-68
2022/08/25 08:48:08;;;;;;;;;;;;;;;-155.54;100.00;57697.75;4984544;28;19929;-68
2022/08/25 08:50:34;;;;;;;;;;;;;;;-155.54;100.00;57697.75;5001223;28;20317;-68
2022/08/25 08:53:21;;;;;;;;;;;;;;;-155.54;100.00;57697.75;5003420;28;19922;-68
2022/08/25 08:55:52;;;;;;;;;;;;;;;-155.54;100.00;57697.75;4983201;28;19965;-68
2022/08/25 08:58:18;;;;;;;;;;;;;;;-155.54;100.00;57697.75;5001160;28;19944;-68
2022/08/25 09:00:47;;;;;;;;;;;;;;;-155.54;100.00;57697.75;5002425;28;20371;-68
2022/08/25 09:03:21;;;;;;;;;;;;;;;-155.54;100.00;57697.75;4983304;28;19918;-68
2022/08/25 09:05:47;;;;;;;;;;;;;;;-155.54;100.00;57697.75;4998899;28;19925;-68
2022/08/25 09:08:13;;;;;;;;;;;;;;;-155.54;100.00;57697.75;4986453;28;19967;-68
2022/08/25 09:10:57;;;;;;;;;;;;;;;-155.54;100.00;57697.75;4997081;28;19929;-68
2022/08/25 09:13:41;;;;;;;;;;;;;;;-155.54;100.00;57697.75;4997397;28;20379;-68
2022/08/25 09:19:13;;;;;;;;;;;;;;;-155.54;100.00;57697.75;4995578;28;20310;-68
2022/08/25 09:21:42;;;;;;;;;;;;;;;-155.54;100.00;57697.75;5002507;28;19979;-68
2022/08/25 09:24:18;;;;;;;;;;;;;;;-155.54;100.00;57697.75;4996960;28;19922;-68
2022/08/25 09:26:49;;;;;;;;;;;;;;;-155.54;100.00;57697.75;4997595;28;19925;-68
2022/08/25 09:29:22;;;;;;;;;;;;;;;-155.54;100.00;57697.75;4983193;28;19925;-68
2022/08/25 09:31:47;;;;;;;;;;;;;;;-155.54;100.00;57697.75;4977714;28;19932;-68
2022/08/25 09:34:16;;;;;;;;;;;;;;;-155.54;100.00;57697.75;5002094;28;19925;-68
2022/08/25 09:36:41;;;;;;;;;;;;;;;-155.54;100.00;57697.75;4996415;28;20438;-69
2022/08/25 09:39:07;;;;;;;;;;;;;;;-155.54;100.00;57697.75;5001188;28;20008;-68
2022/08/25 09:41:35;;;;;;;;;;;;;;;-155.54;100.00;57697.75;5002388;28;19930;-68
2022/08/25 09:44:00;;;;;;;;;;;;;;;-155.54;100.00;57697.75;4997568;28;19925;-68
2022/08/25 09:46:26;;;;;;;;;;;;;;;-155.54;100.00;57697.75;4997902;28;19925;-68
2022/08/25 09:48:55;;;;;;;;;;;;;;;-155.54;100.00;57697.75;4999820;28;20012;-68
2022/08/25 09:51:29;;;;;;;;;;;;;;;-155.54;100.00;57697.75;5000561;28;19928;-69
2022/08/25 09:54:18;;;;;;;;;;;;;;;-155.54;100.00;57697.75;4995576;28;19929;-68
2022/08/25 09:56:50;;;;;;;;;;;;;;;-155.54;100.00;57697.75;4993557;28;20394;-68
2022/08/25 09:59:24;;;;;;;;;;;;;;;-155.54;100.00;57697.75;5001350;28;19921;-68
2022/08/25 10:01:50;;;;;;;;;;;;;;;-155.54;100.00;57697.75;4999128;28;20333;-69
2022/08/25 10:04:23;;;;;;;;;;;;;;;-155.54;100.00;57697.75;4980276;28;19914;-69
2022/08/25 10:06:49;;;;;;;;;;;;;;;-155.54;100.00;57697.75;4999172;28;20012;-69
2022/08/25 10:09:34;;;;;;;;;;;;;;;-155.54;100.00;57697.75;5000376;28;20462;-69
2022/08/25 10:12:00;;;;;;;;;;;;;;;-155.54;100.00;57697.75;4994822;28;20571;-69
2022/08/25 10:14:33;;;;;;;;;;;;;;;-155.54;100.00;57697.75;4977574;28;19965;-69
2022/08/25 10:17:23;;;;;;;;;;;;;;;-155.54;100.00;57697.75;4995478;28;19913;-69
2022/08/25 10:19:49;;;;;;;;;;;;;;;-155.54;100.00;57697.75;4996638;28;19933;-69
2022/08/25 10:22:30;;;;;;;;;;;;;;;-155.54;100.00;57697.75;4999411;28;19964;-69
2022/08/25 10:24:55;;;;;;;;;;;;;;;-155.54;100.00;57697.75;4976989;28;19925;-68
2022/08/25 10:27:22;;;;;;;;;;;;;;;-155.54;100.00;57697.75;4993422;28;19918;-65
2022/08/25 10:29:54;;;;;;;;;;;;;;;-155.54;100.00;57697.75;4978367;28;19921;-64
2022/08/25 10:32:39;;;;;;;;;;;;;;;-155.54;100.00;57697.75;4998280;28;19933;-68
2022/08/25 10:35:24;;;;;;;;;;;;;;;-155.54;100.00;57697.75;5000484;28;19925;-63
2022/08/25 10:38:01;;;;;;;;;;;;;;;-155.54;100.00;57697.75;4996224;28;19926;-63
2022/08/25 10:40:56;;;;;;;;;;;;;;;-155.54;100.00;57697.75;4999568;28;20414;-68
2022/08/25 10:43:30;;;;;;;;;;;;;;;-155.54;100.00;57697.75;4985259;28;20175;-68
2022/08/25 10:46:21;;;;;;;;;;;;;;;-155.54;100.00;57697.75;4983446;28;19930;-79
2022/08/25 10:48:46;;;;;;;;;;;;;;;-155.54;100.00;57697.75;4974015;28;19967;-79
2022/08/25 10:51:21;;;;;;;;;;;;;;;-155.54;100.00;57697.75;4997510;28;20020;-80
2022/08/25 10:53:53;;;;;;;;;;;;;;;-155.54;100.00;57697.75;4982497;28;20024;-79
2022/08/25 10:56:21;;;;;;;;;;;;;;;-155.54;100.00;57697.75;4977104;28;20421;-81
2022/08/25 10:58:50;;;;;;;;;;;;;;;-155.54;100.00;57697.75;5000671;28;20036;-80
2022/08/25 11:01:15;;;;;;;;;;;;;;;-155.54;100.00;57697.75;4997063;28;19928;-80
2022/08/25 11:03:41;;;;;;;;;;;;;;;-155.54;100.00;57697.75;4999765;28;20012;-81
2022/08/25 11:06:09;;;;;;;;;;;;;;;-155.54;100.00;57697.75;4995876;28;19917;-79
2022/08/25 11:08:34;;;;;;;;;;;;;;;-155.54;100.00;57697.75;4982161;28;19917;-81
2022/08/25 11:11:20;;;;;;;;;;;;;;;-155.54;100.00;57697.75;4998416;28;19932;-81
2022/08/25 11:13:46;;;;;;;;;;;;;;;-155.54;100.00;57697.75;5002661;28;19926;-79
2022/08/25 11:16:13;;;;;;;;;;;;;;;-155.54;100.00;57697.75;4986030;28;19921;-79
2022/08/25 11:18:45;;;;;;;;;;;;;;;-155.54;100.00;57697.75;4985263;28;19921;-78
2022/08/25 11:21:11;;;;;;;;;;;;;;;-155.54;100.00;57697.75;5003921;28;19921;-81
2022/08/25 11:23:45;;;;;;;;;;;;;;;-155.54;100.00;57697.75;5000529;28;19975;-81
2022/08/25 11:26:11;;;;;;;;;;;;;;;-155.54;100.00;57697.75;4984405;28;19921;-80
2022/08/25 11:28:39;;;;;;;;;;;;;;;-155.54;100.00;57697.75;4981897;28;20444;-79
2022/08/25 11:31:05;;;;;;;;;;;;;;;-155.54;100.00;57697.75;5001350;28;20410;-75
2022/08/25 11:33:30;;;;;;;;;;;;;;;-155.54;100.00;57697.75;4978105;28;20249;-75
2022/08/25 11:36:00;;;;;;;;;;;;;;;-155.54;100.00;57697.75;4997999;28;19957;-74
2022/08/25 11:38:34;;;;;;;;;;;;;;;-155.54;100.00;57697.75;4976211;28;20383;-75
2022/08/25 11:41:06;;;;;;;;;;;;;;;-155.54;100.00;57697.75;4997839;28;19921;-75
2022/08/25 11:43:41;;;;;;;;;;;;;;;-155.54;100.00;57697.75;4997812;28;20397;-75
2022/08/25 11:46:25;;;;;;;;;;;;;;;-155.54;100.00;57697.75;4993469;28;19938;-75
2022/08/25 11:48:53;;;;;;;;;;;;;;;-155.54;100.00;57697.75;5000500;28;19963;-75
2022/08/25 11:51:28;;;;;;;;;;;;;;;-155.54;100.00;57697.75;4997542;28;20434;-75
2022/08/25 11:54:09;;;;;;;;;;;;;;;-155.54;100.00;57697.75;5001679;28;19933;-75
2022/08/25 11:56:37;;;;;;;;;;;;;;;-155.54;100.00;57697.75;4985401;28;19918;-75
2022/08/25 11:59:04;;;;;;;;;;;;;;;-155.54;100.00;57697.75;4986095;28;20025;-75
2022/08/25 12:01:38;;;;;;;;;;;;;;;-155.54;100.00;57697.75;5003849;28;20302;-75
2022/08/25 12:04:22;;;;;;;;;;;;;;;-155.54;100.00;57697.75;5002823;28;20084;-75
2022/08/25 12:07:05;;;;;;;;;;;;;;;-155.54;100.00;57697.75;5004447;28;19970;-72
2022/08/25 12:09:49;;;;;;;;;;;;;;;-155.54;100.00;57697.75;5000438;28;20386;-72
2022/08/25 12:12:26;;;;;;;;;;;;;;;-155.54;100.00;57697.75;4993679;28;20377;-72
2022/08/25 12:14:51;;;;;;;;;;;;;;;-155.54;100.00;57697.75;5000927;28;19922;-72
2022/08/25 12:17:18;;;;;;;;;;;;;;;-155.54;100.00;57697.75;4982002;28;20135;-72
2022/08/25 12:19:43;;;;;;;;;;;;;;;-155.54;100.00;57697.75;4990202;28;20213;-72
2022/08/25 12:22:08;;;;;;;;;;;;;;;-155.54;100.00;57697.75;5003606;28;20302;-72
2022/08/25 12:24:42;;;;;;;;;;;;;;;-155.54;100.00;57697.75;5005665;28;20028;-73
2022/08/25 12:27:26;;;;;;;;;;;;;;;-155.54;100.00;57697.75;5005928;28;19925;-75
2022/08/25 12:30:12;;;;;;;;;;;;;;;-155.54;100.00;57697.75;5006804;28;19925;-76
2022/08/25 12:32:40;;;;;;;;;;;;;;;-155.54;100.00;57697.75;5005948;28;19979;-76